Time;durP1;ratioP1;P1;durP2;ratioP2;P2;SDS_P1;SDS_P2;PMS_P1;PMS_P2;Temp;Humidity;BMP_temperature;BMP_pressure;BME280_temperature;BME280_humidity;BME280_pressure;Samples;Min_cycle;Max_cycle;Signal;HPM_P1;HPM_P2
2023/06/21 00:00:15;;;;;;;14.32;11.93;;;;;;;22.63;100.00;100103.06;4927366;28;20055;-72
2023/06/21 00:02:43;;;;;;;14.70;13.10;;;;;;;22.62;100.00;100109.47;4941027;28;20058;-72
2023/06/21 00:05:10;;;;;;;14.48;12.43;;;;;;;22.57;100.00;100101.84;4927078;28;22997;-72
2023/06/21 00:07:41;;;;;;;13.75;12.35;;;;;;;22.56;100.00;100100.13;4946704;28;20421;-72
2023/06/21 00:10:08;;;;;;;;;;;;;;;22.54;100.00;100107.53;4928166;28;20047;-73
2023/06/21 00:12:39;;;;;;;18.50;12.73;;;;;;;22.51;100.00;100099.75;4937925;28;19930;-72
2023/06/21 00:15:07;;;;;;;18.47;13.57;;;;;;;22.55;100.00;100106.53;4943362;28;20043;-72
2023/06/21 00:17:33;;;;;;;14.10;12.00;;;;;;;22.50;100.00;100103.47;4927220;28;20561;-72
2023/06/21 00:20:00;;;;;;;15.27;13.68;;;;;;;22.45;100.00;100095.00;4946437;28;20055;-73
2023/06/21 00:22:29;;;;;;;14.38;11.48;;;;;;;22.45;100.00;100094.16;4939093;28;20047;-74
2023/06/21 00:24:59;;;;;;;15.57;12.05;;;;;;;22.51;100.00;100097.03;4929897;28;20055;-73
2023/06/21 00:27:28;;;;;;;13.05;11.50;;;;;;;22.51;100.00;100091.66;4931354;28;20055;-72
2023/06/21 00:29:55;;;;;;;15.32;12.13;;;;;;;22.61;100.00;100107.78;4932858;28;20053;-72
2023/06/21 00:32:22;;;;;;;16.95;12.82;;;;;;;22.63;100.00;100103.91;4942642;28;20047;-72
2023/06/21 00:34:49;;;;;;;18.00;13.90;;;;;;;22.55;100.00;100103.00;4942051;28;20059;-72
2023/06/21 00:37:17;;;;;;;14.40;12.45;;;;;;;22.49;100.00;100106.34;4946963;28;20219;-72
2023/06/21 00:39:44;;;;;;;14.35;12.23;;;;;;;22.37;100.00;100108.38;4940069;28;20126;-72
2023/06/21 00:42:12;;;;;;;14.13;12.07;;;;;;;22.32;100.00;100116.97;4922466;29;20779;-74
2023/06/21 00:44:39;;;;;;;14.95;12.18;;;;;;;22.25;100.00;100115.88;4939571;28;20142;-74
2023/06/21 00:47:06;;;;;;;14.80;12.50;;;;;;;22.20;100.00;100114.63;4947134;28;20081;-73
2023/06/21 00:49:35;;;;;;;15.27;11.52;;;;;;;22.09;100.00;100096.84;4926969;28;20612;-72
2023/06/21 00:52:05;;;;;;;16.00;11.55;;;;;;;22.18;100.00;100117.50;4944383;28;20067;-74
2023/06/21 00:54:36;;;;;;;15.73;12.35;;;;;;;22.23;100.00;100123.28;4940013;28;20055;-73
2023/06/21 00:57:04;;;;;;;14.93;12.48;;;;;;;22.18;100.00;100124.75;4930412;28;20078;-72
2023/06/21 00:59:31;;;;;;;15.82;12.45;;;;;;;22.07;100.00;100112.31;4955073;28;20051;-73
2023/06/21 01:02:00;;;;;;;13.02;11.63;;;;;;;22.13;100.00;100154.00;4944157;28;20193;-72
2023/06/21 01:04:31;;;;;;;13.67;11.50;;;;;;;22.08;100.00;100145.53;4941602;28;20081;-72
2023/06/21 01:07:16;;;;;;;;;;;;;;;22.07;100.00;100147.38;4941367;28;20046;-73
2023/06/21 01:09:54;;;;;;;13.07;10.77;;;;;;;22.11;100.00;100145.22;4951651;28;20018;-72
2023/06/21 01:12:41;;;;;;;13.68;11.60;;;;;;;22.12;100.00;100155.84;4929965;28;20044;-73
2023/06/21 01:15:18;;;;;;;13.15;9.80;;;;;;;22.08;100.00;100165.25;4939678;28;20279;-72
2023/06/21 01:17:51;;;;;;;12.02;10.25;;;;;;;22.00;100.00;100165.16;4949884;28;20129;-74
2023/06/21 01:20:24;;;;;;;12.52;10.07;;;;;;;22.00;100.00;100162.47;4950408;28;20043;-72
2023/06/21 01:22:51;;;;;;;12.43;10.00;;;;;;;21.97;100.00;100171.66;4927534;28;20062;-72
2023/06/21 01:25:50;;;;;;;12.18;9.10;;;;;;;21.96;100.00;100178.06;4931610;28;20383;-71
2023/06/21 01:28:47;;;;;;;12.00;10.18;;;;;;;21.94;100.00;100180.06;4934405;28;20118;-76
2023/06/21 01:31:16;;;;;;;10.95;9.02;;;;;;;21.96;100.00;100180.75;4952836;28;20054;-72
2023/06/21 01:33:44;;;;;;;12.00;9.20;;;;;;;22.02;100.00;100174.81;4944340;28;20039;-73
2023/06/21 01:36:11;;;;;;;12.13;8.88;;;;;;;22.13;100.00;100181.84;4950100;28;20054;-73
2023/06/21 01:38:38;;;;;;;11.40;9.48;;;;;;;22.18;100.00;100187.63;4951203;28;20229;-73
2023/06/21 01:41:10;;;;;;;12.73;9.18;;;;;;;22.20;100.00;100182.91;4931149;28;20105;-73
2023/06/21 01:43:37;;;;;;;12.75;9.07;;;;;;;22.13;100.00;100186.38;4929068;28;20617;-73
2023/06/21 01:46:06;;;;;;;13.68;9.40;;;;;;;22.10;100.00;100183.97;4954364;28;20059;-73
2023/06/21 01:48:35;;;;;;;13.45;9.57;;;;;;;21.98;100.00;100186.00;4952724;28;20042;-72
2023/06/21 01:51:05;;;;;;;9.57;8.57;;;;;;;21.93;100.00;100190.97;4948372;28;20509;-72
2023/06/21 01:53:33;;;;;;;12.10;8.55;;;;;;;21.86;100.00;100187.19;4938341;28;20043;-73
2023/06/21 01:56:02;;;;;;;9.65;8.32;;;;;;;21.81;100.00;100195.72;4950627;28;20330;-72
2023/06/21 01:58:31;;;;;;;9.57;8.40;;;;;;;21.72;100.00;100185.84;4950702;28;20047;-72
2023/06/21 02:01:01;;;;;;;10.55;8.70;;;;;;;21.76;100.00;100192.63;4946411;28;20043;-72
2023/06/21 02:03:30;;;;;;;10.50;8.55;;;;;;;21.69;100.00;100181.59;4928125;29;20063;-71
2023/06/21 02:06:00;;;;;;;11.27;9.23;;;;;;;21.66;100.00;100189.13;4935297;29;20142;-72
2023/06/21 02:08:27;;;;;;;9.83;8.77;;;;;;;21.49;100.00;100176.44;4935981;29;20044;-72
2023/06/21 02:10:54;;;;;;;12.27;8.55;;;;;;;21.50;100.00;100196.97;4932770;28;20466;-73
2023/06/21 02:13:26;;;;;;;8.93;7.78;;;;;;;21.47;100.00;100199.97;4935910;29;20105;-73
2023/06/21 02:15:53;;;;;;;8.98;8.07;;;;;;;21.46;100.00;100195.56;4949793;28;20342;-73
2023/06/21 02:18:24;;;;;;;9.52;8.55;;;;;;;21.47;100.00;100197.28;4942242;29;20073;-72
2023/06/21 02:20:52;;;;;;;10.63;8.25;;;;;;;21.39;100.00;100202.56;4932204;28;20057;-72
2023/06/21 02:23:19;;;;;;;10.93;8.43;;;;;;;21.31;100.00;100196.03;4931950;28;20051;-72
2023/06/21 02:25:46;;;;;;;9.70;7.88;;;;;;;21.27;100.00;100197.31;4934246;28;20580;-72
2023/06/21 02:28:13;;;;;;;10.80;8.15;;;;;;;21.19;100.00;100180.16;4947112;28;20054;-73
2023/06/21 02:30:39;;;;;;;9.18;7.80;;;;;;;21.13;100.00;100173.50;4946636;28;20134;-73
2023/06/21 02:33:07;;;;;;;10.23;7.57;;;;;;;21.14;100.00;100182.44;4942374;28;20054;-72
2023/06/21 02:35:35;;;;;;;13.52;8.02;;;;;;;21.06;100.00;100172.41;4945822;28;20537;-72
2023/06/21 02:38:01;;;;;;;8.80;6.97;;;;;;;21.05;100.00;100176.09;4947752;28;20051;-73
2023/06/21 02:40:29;;;;;;;9.82;8.18;;;;;;;21.03;100.00;100183.44;4933151;29;20282;-73
2023/06/21 02:42:56;;;;;;;11.75;8.00;;;;;;;20.95;100.00;100175.22;4949945;28;20057;-73
2023/06/21 02:45:24;;;;;;;10.07;7.72;;;;;;;21.01;100.00;100191.66;4932304;28;20146;-72
2023/06/21 02:47:51;;;;;;;9.80;7.80;;;;;;;21.02;100.00;100182.59;4929179;28;20040;-72
2023/06/21 02:50:20;;;;;;;9.07;6.97;;;;;;;21.14;100.00;100198.59;4946188;28;20070;-72
2023/06/21 02:52:50;;;;;;;8.55;7.03;;;;;;;21.27;100.00;100205.41;4930235;28;20133;-73
2023/06/21 02:55:17;;;;;;;10.68;7.85;;;;;;;21.27;100.00;100210.78;4925243;29;20059;-74
2023/06/21 02:57:44;;;;;;;11.63;7.30;;;;;;;21.14;100.00;100196.75;4946204;28;20048;-72
2023/06/21 03:00:27;;;;;;;9.02;7.45;;;;;;;21.03;100.00;100191.53;4930946;28;20134;-72
2023/06/21 03:03:00;;;;;;;11.15;7.82;;;;;;;21.03;100.00;100196.91;4941313;28;21142;-72
2023/06/21 03:05:28;;;;;;;10.93;7.53;;;;;;;21.00;100.00;100207.97;4928361;28;20489;-72
2023/06/21 03:07:57;;;;;;;10.00;7.63;;;;;;;21.01;100.00;100217.75;4945327;28;20452;-73
2023/06/21 03:10:23;;;;;;;8.32;7.40;;;;;;;20.98;100.00;100218.03;4948456;28;20593;-72
2023/06/21 03:12:51;;;;;;;11.48;7.60;;;;;;;20.92;100.00;100222.16;4925957;29;20518;-73
2023/06/21 03:15:19;;;;;;;11.15;8.05;;;;;;;20.86;100.00;100224.53;4941445;28;20498;-73
2023/06/21 03:17:47;;;;;;;12.05;7.47;;;;;;;20.79;100.00;100235.00;4953329;28;20134;-72
2023/06/21 03:20:14;;;;;;;10.48;8.07;;;;;;;20.69;100.00;100230.63;4929787;28;20047;-73
2023/06/21 03:22:41;;;;;;;10.45;7.63;;;;;;;20.67;100.00;100231.63;4948032;28;20332;-74
2023/06/21 03:25:13;;;;;;;9.23;8.32;;;;;;;20.65;100.00;100255.13;4928058;28;20220;-73
2023/06/21 03:27:43;;;;;;;11.07;8.18;;;;;;;20.63;100.00;100249.03;4949844;28;20150;-72
2023/06/21 03:30:11;;;;;;;10.98;8.10;;;;;;;20.74;100.00;100252.59;4930998;28;20051;-73
2023/06/21 03:32:46;;;;;;;10.25;8.35;;;;;;;20.79;100.00;100250.31;4927656;28;20043;-73
2023/06/21 03:35:14;;;;;;;12.73;8.20;;;;;;;20.82;100.00;100250.03;4946334;28;20059;-73
2023/06/21 03:37:42;;;;;;;10.02;8.27;;;;;;;20.95;100.00;100261.38;4949618;28;20047;-73
2023/06/21 03:40:13;;;;;;;10.63;7.88;;;;;;;21.11;100.00;100267.03;4948977;28;20047;-72
2023/06/21 03:42:42;;;;;;;11.98;8.48;;;;;;;21.13;100.00;100269.59;4935404;29;20043;-72
2023/06/21 03:45:09;;;;;;;10.40;8.27;;;;;;;21.03;100.00;100264.22;4926185;28;20288;-72
2023/06/21 03:47:40;;;;;;;9.15;8.10;;;;;;;20.90;100.00;100277.13;4948573;28;20054;-72
2023/06/21 03:50:08;;;;;;;9.65;8.32;;;;;;;20.82;100.00;100285.88;4946237;28;20047;-74
2023/06/21 03:52:35;;;;;;;12.43;9.07;;;;;;;20.74;100.00;100282.19;4930663;28;20054;-72
2023/06/21 03:55:04;;;;;;;12.90;9.43;;;;;;;20.65;100.00;100279.34;4944259;28;20126;-71
2023/06/21 03:57:31;;;;;;;15.10;9.57;;;;;;;20.62;100.00;100286.81;4949039;28;20110;-72
2023/06/21 03:59:58;;;;;;;12.82;9.90;;;;;;;20.68;100.00;100288.97;4939376;28;20118;-72
2023/06/21 04:02:25;;;;;;;13.30;10.30;;;;;;;20.65;100.00;100282.03;4933080;28;20059;-73
2023/06/21 04:04:54;;;;;;;15.02;10.18;;;;;;;20.65;100.00;100286.56;4943677;28;20078;-72
2023/06/21 04:07:23;;;;;;;15.82;10.27;;;;;;;20.70;100.00;100294.22;4941849;28;20060;-72
2023/06/21 04:09:51;;;;;;;13.77;10.32;;;;;;;20.70;100.00;100294.22;4945988;28;20058;-72
2023/06/21 04:12:18;;;;;;;12.68;10.45;;;;;;;20.69;100.00;100292.50;4925813;28;20535;-72
2023/06/21 04:14:46;;;;;;;13.85;9.82;;;;;;;20.70;100.00;100294.22;4936841;28;20586;-73
2023/06/21 04:17:13;;;;;;;13.52;9.65;;;;;;;20.78;100.00;100314.06;4947313;28;20043;-73
2023/06/21 04:19:40;;;;;;;13.32;9.65;;;;;;;20.87;100.00;100307.00;4928413;29;20425;-72
2023/06/21 04:22:07;;;;;;;13.05;9.18;;;;;;;20.95;100.00;100307.13;4943994;28;20058;-74
2023/06/21 04:24:36;;;;;;;14.30;9.93;;;;;;;20.91;100.00;100305.72;4944323;28;20520;-72
2023/06/21 04:27:03;;;;;;;11.77;10.07;;;;;;;20.93;100.00;100301.06;4955535;28;20821;-73
2023/06/21 04:29:30;;;;;;;13.90;11.00;;;;;;;21.08;100.00;100325.72;4946874;28;20055;-72
2023/06/21 04:31:57;;;;;;;12.15;10.80;;;;;;;21.12;100.00;100327.97;4936972;28;20062;-72
2023/06/21 04:34:27;;;;;;;13.10;10.15;;;;;;;21.18;100.00;100324.72;4938965;28;20039;-72
2023/06/21 04:36:55;;;;;;;14.25;11.88;;;;;;;21.45;100.00;100315.94;4946399;28;20044;-72
2023/06/21 04:39:21;;;;;;;15.73;12.82;;;;;;;21.71;100.00;100329.69;4930709;28;20076;-72
2023/06/21 04:41:51;;;;;;;14.75;12.73;;;;;;;21.88;100.00;100312.72;4927717;28;20070;-72
2023/06/21 04:44:17;;;;;;;17.88;12.75;;;;;;;22.07;100.00;100321.78;4924206;29;20058;-74
2023/06/21 04:46:44;;;;;;;15.15;12.70;;;;;;;22.21;100.00;100327.56;4930437;28;20190;-73
2023/06/21 04:49:12;;;;;;;15.68;12.40;;;;;;;22.25;100.00;100317.31;4933398;29;20495;-72
2023/06/21 04:51:43;;;;;;;13.52;12.13;;;;;;;22.26;100.00;100319.03;4946839;28;20071;-75
2023/06/21 04:54:09;;;;;;;13.35;11.95;;;;;;;22.26;100.00;100325.28;4940970;28;20050;-73
2023/06/21 04:56:37;;;;;;;17.05;12.32;;;;;;;22.23;100.00;100327.41;4943021;28;20465;-73
2023/06/21 04:59:04;;;;;;;13.30;10.80;;;;;;;22.21;100.00;100337.50;4952821;28;20061;-73
2023/06/21 05:01:31;;;;;;;16.60;12.10;;;;;;;22.10;100.00;100340.38;4952137;28;20138;-73
2023/06/21 05:03:58;;;;;;;16.55;11.68;;;;;;;21.79;100.00;100342.41;4935819;28;20142;-74
2023/06/21 05:06:26;;;;;;;13.02;10.95;;;;;;;21.57;100.00;100349.81;4937373;28;20057;-74
2023/06/21 05:08:53;;;;;;;13.13;10.63;;;;;;;21.60;100.00;100348.69;4952023;28;20048;-72
2023/06/21 05:11:20;;;;;;;15.30;11.30;;;;;;;21.69;100.00;100354.09;4945828;28;20046;-73
2023/06/21 05:13:47;;;;;;;12.60;10.77;;;;;;;21.85;100.00;100345.41;4930859;28;20094;-73
2023/06/21 05:16:15;;;;;;;12.27;10.82;;;;;;;21.98;100.00;100348.63;4945744;28;20047;-72
2023/06/21 05:18:42;;;;;;;14.52;10.85;;;;;;;22.10;100.00;100353.88;4928925;28;20039;-72
2023/06/21 05:21:09;;;;;;;14.27;10.13;;;;;;;22.04;100.00;100337.25;4949704;28;20130;-73
2023/06/21 05:23:36;;;;;;;11.38;9.68;;;;;;;22.15;100.00;100346.19;4931247;28;20048;-73
2023/06/21 05:26:05;;;;;;;16.02;10.73;;;;;;;22.18;100.00;100356.69;4923676;28;20047;-72
2023/06/21 05:28:32;;;;;;;13.48;10.07;;;;;;;22.12;100.00;100357.28;4921206;29;20545;-71
2023/06/21 05:30:58;;;;;;;14.02;10.68;;;;;;;22.01;100.00;100361.00;4930844;29;20043;-73
2023/06/21 05:33:25;;;;;;;11.63;10.43;;;;;;;22.01;100.00;100374.47;4949221;28;20062;-72
2023/06/21 05:35:53;;;;;;;14.55;10.48;;;;;;;22.10;100.00;100362.81;4942841;28;20061;-74
2023/06/21 05:38:20;;;;;;;12.90;10.48;;;;;;;22.03;100.00;100375.19;4940792;28;20122;-72
2023/06/21 05:40:47;;;;;;;13.93;10.38;;;;;;;21.86;100.00;100368.66;4942149;28;20066;-73
2023/06/21 05:43:14;;;;;;;12.05;9.40;;;;;;;21.79;100.00;100359.44;4931665;29;20501;-74
2023/06/21 05:45:40;;;;;;;14.18;9.70;;;;;;;22.02;100.00;100363.56;4925491;28;20061;-72
2023/06/21 05:48:07;;;;;;;11.73;9.68;;;;;;;22.25;100.00;100360.50;4916473;29;20071;-73
2023/06/21 05:50:33;;;;;;;15.35;9.77;;;;;;;22.51;100.00;100364.19;4945835;28;20043;-73
2023/06/21 05:53:00;;;;;;;14.73;9.75;;;;;;;22.59;100.00;100368.88;4949365;28;20086;-73
2023/06/21 05:55:27;;;;;;;11.30;10.07;;;;;;;22.67;100.00;100356.31;4925567;29;20054;-72
2023/06/21 05:57:55;;;;;;;12.70;9.85;;;;;;;22.72;100.00;100359.41;4928161;28;20857;-73
2023/06/21 06:00:21;;;;;;;12.73;9.65;;;;;;;22.72;100.00;100358.56;4933458;28;20069;-72
2023/06/21 06:02:48;;;;;;;11.18;9.95;;;;;;;22.66;100.00;100367.28;4932447;29;20062;-73
2023/06/21 06:05:16;;;;;;;11.65;9.10;;;;;;;22.59;100.00;100366.16;4943132;28;20677;-72
2023/06/21 06:07:43;;;;;;;17.17;9.00;;;;;;;22.57;100.00;100350.13;4928238;29;20051;-72
2023/06/21 06:10:09;;;;;;;13.68;9.10;;;;;;;22.83;100.00;100357.53;4933208;29;20047;-72
2023/06/21 06:12:36;;;;;;;12.55;9.07;;;;;;;22.99;100.00;100358.56;4953573;28;20484;-72
2023/06/21 06:15:03;;;;;;;10.52;8.48;;;;;;;23.16;100.00;100380.34;4926115;28;20055;-72
2023/06/21 06:17:30;;;;;;;10.82;8.90;;;;;;;23.23;100.00;100385.00;4918918;29;20089;-73
2023/06/21 06:19:58;;;;;;;9.43;8.35;;;;;;;23.23;100.00;100387.69;4949048;28;20148;-73
2023/06/21 06:22:25;;;;;;;13.88;8.98;;;;;;;23.21;100.00;100384.28;4929627;28;20079;-73
2023/06/21 06:24:52;;;;;;;12.30;8.07;;;;;;;23.27;100.00;100391.78;4945467;28;20182;-75
2023/06/21 06:27:19;;;;;;;16.25;7.95;;;;;;;23.32;100.00;100394.84;4930111;29;20111;-72
2023/06/21 06:29:47;;;;;;;13.27;8.63;;;;;;;23.43;100.00;100402.75;4931876;29;20062;-72
2023/06/21 06:32:18;;;;;;;9.93;8.52;;;;;;;23.65;99.85;100416.81;4950217;28;20070;-73
2023/06/21 06:34:45;;;;;;;13.10;8.38;;;;;;;23.80;98.46;100404.44;4943700;29;20047;-72
2023/06/21 06:37:11;;;;;;;10.23;8.93;;;;;;;23.90;98.71;100415.19;4932730;29;20514;-72
2023/06/21 06:39:45;;;;;;;15.63;8.98;;;;;;;23.63;99.16;100414.28;4919436;28;20091;-72
2023/06/21 06:42:12;;;;;;;15.43;9.90;;;;;;;23.48;100.00;100414.94;4920928;28;20053;-72
2023/06/21 06:44:39;;;;;;;11.35;9.07;;;;;;;23.42;100.00;100411.88;4931838;29;20771;-73
2023/06/21 06:47:07;;;;;;;12.95;9.18;;;;;;;23.59;100.00;100403.94;4939795;28;20043;-73
2023/06/21 06:49:36;;;;;;;11.50;9.95;;;;;;;23.86;99.21;100408.38;4932967;29;20069;-73
2023/06/21 06:52:05;;;;;;;13.75;9.20;;;;;;;23.97;99.05;100406.28;4946215;28;20051;-72
2023/06/21 06:54:31;;;;;;;12.40;8.90;;;;;;;24.05;99.13;100403.66;4930927;28;20075;-72
2023/06/21 06:56:58;;;;;;;13.75;9.52;;;;;;;24.04;97.49;100404.66;4926173;28;20105;-72
2023/06/21 06:59:27;;;;;;;13.40;9.82;;;;;;;23.71;100.00;100406.25;4933809;29;20145;-73
2023/06/21 07:01:55;;;;;;;13.73;9.27;;;;;;;23.73;100.00;100412.34;4930954;29;20047;-72
2023/06/21 07:04:22;;;;;;;10.23;9.13;;;;;;;23.89;100.00;100417.03;4931027;29;20454;-76
2023/06/21 07:06:49;;;;;;;13.38;9.32;;;;;;;23.99;100.00;100417.78;4943755;28;20066;-72
2023/06/21 07:09:16;;;;;;;12.55;9.27;;;;;;;24.05;99.05;100416.31;4948555;28;20118;-73
2023/06/21 07:11:45;;;;;;;12.43;9.73;;;;;;;24.06;98.61;100424.28;4930426;29;20043;-72
2023/06/21 07:14:11;;;;;;;11.90;10.23;;;;;;;23.88;99.46;100431.56;4941264;29;20059;-73
2023/06/21 07:16:41;;;;;;;12.70;8.93;;;;;;;23.75;100.00;100439.25;4938591;28;20051;-71
2023/06/21 07:19:08;;;;;;;10.38;9.25;;;;;;;23.72;100.00;100432.28;4919916;28;20047;-72
2023/06/21 07:21:35;;;;;;;11.65;8.77;;;;;;;23.79;100.00;100437.91;4917150;28;20039;-72
2023/06/21 07:24:02;;;;;;;11.20;9.38;;;;;;;23.95;98.89;100443.44;4948913;28;20515;-72
2023/06/21 07:26:31;;;;;;;12.85;8.88;;;;;;;23.99;97.52;100439.44;4933647;28;20047;-72
2023/06/21 07:28:58;;;;;;;13.38;8.93;;;;;;;23.99;99.00;100431.31;4957139;28;20044;-73
2023/06/21 07:31:24;;;;;;;11.40;8.18;;;;;;;24.29;97.88;100440.84;4951761;28;20323;-71
2023/06/21 07:33:56;;;;;;;12.98;9.60;;;;;;;24.63;95.10;100449.03;4945577;28;20047;-72
2023/06/21 07:36:22;;;;;;;14.38;9.13;;;;;;;24.66;92.88;100454.13;4938516;29;20043;-72
2023/06/21 07:38:49;;;;;;;14.35;9.02;;;;;;;24.68;94.35;100452.09;4943180;28;20486;-73
2023/06/21 07:41:18;;;;;;;14.15;9.45;;;;;;;24.79;90.56;100451.81;4918172;29;20052;-72
2023/06/21 07:43:45;;;;;;;13.10;9.13;;;;;;;24.94;91.95;100445.81;4940852;28;20047;-72
2023/06/21 07:46:14;;;;;;;14.57;9.35;;;;;;;25.13;88.12;100432.00;4940976;28;20047;-72
2023/06/21 07:48:42;;;;;;;12.52;9.05;;;;;;;24.77;88.11;100437.56;4946688;28;20059;-71
2023/06/21 07:51:09;;;;;;;13.05;9.50;;;;;;;24.52;91.17;100445.75;4925002;28;20115;-70
2023/06/21 07:53:35;;;;;;;10.90;8.63;;;;;;;24.53;92.02;100445.59;4945584;28;20048;-72
2023/06/21 07:56:02;;;;;;;10.70;7.97;;;;;;;24.56;91.92;100445.25;4925891;29;20051;-72
2023/06/21 07:58:29;;;;;;;15.10;9.02;;;;;;;24.67;92.87;100466.66;4932450;29;20069;-71
2023/06/21 08:00:56;;;;;;;14.10;8.73;;;;;;;24.51;93.08;100447.59;4935457;28;20644;-71
2023/06/21 08:03:22;;;;;;;13.15;8.82;;;;;;;24.61;92.78;100448.31;4940057;28;20039;-72
2023/06/21 08:05:50;;;;;;;10.65;8.10;;;;;;;24.76;91.94;100454.84;4919908;29;20051;-72
2023/06/21 08:08:20;;;;;;;13.43;8.90;;;;;;;24.88;92.36;100454.53;4925004;29;20070;-71
2023/06/21 08:10:47;;;;;;;13.48;8.98;;;;;;;25.07;89.92;100446.19;4909062;28;20138;-72
2023/06/21 08:13:18;;;;;;;13.20;9.68;;;;;;;25.42;87.54;100454.09;4940285;28;20135;-71
2023/06/21 08:15:47;;;;;;;12.68;8.63;;;;;;;25.83;83.80;100449.59;4905432;28;20151;-71
2023/06/21 08:18:13;;;;;;;11.68;8.13;;;;;;;26.37;78.74;100443.66;4928012;29;20526;-70
2023/06/21 08:20:42;;;;;;;12.10;8.90;;;;;;;26.34;77.70;100441.28;4929718;29;20110;-71
2023/06/21 08:23:09;;;;;;;10.93;8.68;;;;;;;25.81;81.84;100443.47;4944176;28;20130;-71
2023/06/21 08:25:35;;;;;;;10.27;8.85;;;;;;;25.66;83.34;100441.59;4935711;28;20417;-70
2023/06/21 08:28:02;;;;;;;14.30;9.55;;;;;;;25.66;84.14;100433.47;4944430;28;20458;-71
2023/06/21 08:30:29;;;;;;;18.35;9.38;;;;;;;25.71;86.31;100441.97;4944175;28;20106;-71
2023/06/21 08:32:56;;;;;;;12.55;9.07;;;;;;;25.82;86.51;100442.47;4944665;28;20071;-71
2023/06/21 08:35:22;;;;;;;13.20;8.35;;;;;;;26.28;83.29;100433.81;4946274;28;20047;-71
2023/06/21 08:37:55;;;;;;;12.02;8.73;;;;;;;26.69;78.06;100443.56;4924714;28;20137;-71
2023/06/21 08:40:26;;;;;;;11.15;8.35;;;;;;;26.98;74.82;100434.81;4917430;29;20050;-72
2023/06/21 08:42:53;;;;;;;11.82;7.72;;;;;;;27.32;71.39;100430.91;4922513;28;20066;-73
2023/06/21 08:45:21;;;;;;;9.18;6.88;;;;;;;27.64;70.56;100435.31;4941551;28;20066;-71
2023/06/21 08:47:49;;;;;;;13.57;8.23;;;;;;;27.57;68.25;100444.19;4942000;28;20102;-71
2023/06/21 08:50:18;;;;;;;12.35;7.45;;;;;;;27.40;70.44;100452.59;4947532;28;20604;-72
2023/06/21 08:52:46;;;;;;;10.07;7.82;;;;;;;27.11;72.89;100447.84;4946064;29;20071;-71
2023/06/21 08:55:16;;;;;;;8.93;7.43;;;;;;;26.84;73.46;100444.53;4929443;29;20062;-72
2023/06/21 08:57:56;;;;;;;10.02;7.65;;;;;;;26.48;75.75;100456.84;4944334;28;20054;-71
2023/06/21 09:00:33;;;;;;;13.65;8.20;;;;;;;25.82;78.73;100449.75;4945238;28;20047;-72
2023/06/21 09:03:09;;;;;;;8.55;7.38;;;;;;;25.62;82.46;100451.13;4913321;28;20058;-72
2023/06/21 09:05:49;;;;;;;9.02;6.90;;;;;;;26.08;79.61;100455.88;4928724;29;20050;-71
2023/06/21 09:08:16;;;;;;;8.68;6.55;;;;;;;26.68;74.46;100441.88;4924361;29;20130;-71
2023/06/21 09:10:44;;;;;;;7.68;5.60;;;;;;;27.27;69.14;100453.19;4951281;28;20039;-71
2023/06/21 09:13:12;;;;;;;8.95;6.63;;;;;;;27.68;67.71;100442.94;4947828;28;20086;-71
2023/06/21 09:15:40;;;;;;;8.15;6.15;;;;;;;27.87;66.89;100452.47;4945741;28;20102;-71
2023/06/21 09:18:07;;;;;;;9.20;6.93;;;;;;;28.16;64.51;100433.53;4931460;29;20395;-71
2023/06/21 09:20:34;;;;;;;9.25;6.82;;;;;;;28.49;63.99;100435.94;4939815;29;20051;-72
2023/06/21 09:23:02;;;;;;;8.60;6.63;;;;;;;28.62;61.42;100441.56;4935030;29;20137;-70
2023/06/21 09:25:30;;;;;;;8.25;6.60;;;;;;;28.37;62.53;100440.97;4940983;28;20051;-71
2023/06/21 09:27:56;;;;;;;8.88;5.93;;;;;;;28.41;60.69;100458.66;4945127;28;20137;-70
2023/06/21 09:30:25;;;;;;;11.32;6.10;;;;;;;28.02;62.65;100460.72;4947338;28;20114;-71
2023/06/21 09:32:56;;;;;;;7.53;6.25;;;;;;;27.30;63.72;100458.28;4950924;28;20129;-71
2023/06/21 09:35:23;;;;;;;7.57;6.10;;;;;;;27.06;66.63;100455.69;4929445;29;20043;-71
2023/06/21 09:37:50;;;;;;;16.88;7.10;;;;;;;26.94;67.73;100474.25;4943578;28;20130;-71
2023/06/21 09:40:17;;;;;;;8.35;6.50;;;;;;;26.64;69.98;100469.56;4952450;28;20074;-71
2023/06/21 09:42:49;;;;;;;7.90;6.45;;;;;;;26.34;70.16;100463.84;4935126;29;20437;-70
2023/06/21 09:45:19;;;;;;;9.20;7.50;;;;;;;26.50;71.90;100485.53;4944865;28;20047;-72
2023/06/21 09:47:46;;;;;;;;;;;;;;;26.51;72.47;100489.97;4926134;29;20126;-72
2023/06/21 09:50:13;;;;;;;10.63;8.10;;;;;;;26.46;73.41;100502.34;4930416;29;20372;-72
2023/06/21 09:52:43;;;;;;;9.48;7.50;;;;;;;26.41;72.45;100499.31;4934907;29;20138;-71
2023/06/21 09:55:15;;;;;;;8.00;7.13;;;;;;;26.39;71.64;100490.50;4940154;28;20051;-72
2023/06/21 09:57:42;;;;;;;8.32;6.45;;;;;;;26.62;70.97;100483.31;4924880;29;20066;-73
2023/06/21 10:00:10;;;;;;;6.55;5.90;;;;;;;26.95;68.88;100480.53;4945975;28;20043;-72
2023/06/21 10:02:40;;;;;;;7.90;5.78;;;;;;;27.27;66.30;100485.81;4947278;28;20098;-71
2023/06/21 10:05:19;;;;;;;7.53;6.30;;;;;;;27.51;64.91;100466.66;4947788;28;20201;-71
2023/06/21 10:07:47;;;;;;;12.45;6.30;;;;;;;27.71;63.12;100485.25;4940016;28;20142;-71
2023/06/21 10:10:19;;;;;;;10.10;6.90;;;;;;;27.72;62.35;100495.09;4931733;29;20078;-72
2023/06/21 10:12:51;;;;;;;8.85;6.78;;;;;;;27.77;61.51;100488.09;4915723;29;20058;-71
2023/06/21 10:15:21;;;;;;;8.60;6.30;;;;;;;27.85;61.06;100506.25;4933991;28;20290;-72
2023/06/21 10:17:48;;;;;;;9.30;6.90;;;;;;;28.13;58.72;100495.66;4922737;28;20429;-71
2023/06/21 10:20:31;;;;;;;7.13;6.43;;;;;;;28.51;58.18;100496.50;4928060;28;20062;-71
2023/06/21 10:23:01;;;;;;;8.80;6.80;;;;;;;28.78;56.10;100487.72;4940149;28;20102;-69
2023/06/21 10:25:30;;;;;;;11.23;6.70;;;;;;;28.79;56.46;100494.91;4943944;28;20059;-69
2023/06/21 10:28:00;;;;;;;9.77;7.30;;;;;;;28.78;56.82;100493.16;4924475;28;20494;-70
2023/06/21 10:30:29;;;;;;;7.05;5.57;;;;;;;28.91;55.33;100493.38;4948566;28;20054;-69
2023/06/21 10:33:00;;;;;;;8.60;6.50;;;;;;;28.48;56.21;100492.31;4946021;28;20557;-69
2023/06/21 10:35:27;;;;;;;;;;;;;;;28.32;58.75;100495.19;4941270;28;20046;-71
2023/06/21 10:38:08;;;;;;;8.93;6.28;;;;;;;28.10;59.52;100488.69;4949888;28;20013;-70
2023/06/21 10:40:36;;;;;;;7.32;5.40;;;;;;;27.66;57.07;100490.41;4948426;28;20082;-71
2023/06/21 10:43:04;;;;;;;7.78;6.00;;;;;;;27.53;59.22;100483.66;4951820;28;20146;-70
2023/06/21 10:45:35;;;;;;;10.23;6.35;;;;;;;27.49;60.68;100487.75;4951777;28;20047;-72
2023/06/21 10:48:02;;;;;;;7.25;6.35;;;;;;;27.65;60.77;100475.09;4924298;28;20066;-71
2023/06/21 10:50:30;;;;;;;8.85;6.45;;;;;;;27.73;60.68;100496.78;4953514;28;20067;-70
2023/06/21 10:52:58;;;;;;;6.43;5.50;;;;;;;28.05;59.05;100501.16;4953379;28;20051;-71
2023/06/21 10:55:25;;;;;;;8.13;4.93;;;;;;;28.25;54.96;100495.06;4928711;29;20843;-69
2023/06/21 10:57:53;;;;;;;6.22;5.22;;;;;;;28.53;54.52;100500.75;4944491;28;20568;-72
2023/06/21 11:00:25;;;;;;;5.47;4.97;;;;;;;28.81;52.58;100484.63;4953525;28;20082;-70
2023/06/21 11:02:56;;;;;;;6.03;5.43;;;;;;;28.95;51.36;100493.88;4934267;29;20055;-68
2023/06/21 11:05:25;;;;;;;9.68;6.70;;;;;;;28.79;52.49;100480.38;4939967;28;20051;-67
2023/06/21 11:08:01;;;;;;;7.28;5.78;;;;;;;28.80;54.69;100490.28;4930032;28;20512;-69
2023/06/21 11:10:42;;;;;;;9.40;6.43;;;;;;;28.78;53.28;100482.28;4956517;28;20118;-68
2023/06/21 11:13:14;;;;;;;9.43;6.35;;;;;;;28.95;52.45;100470.19;4954860;28;20055;-70
2023/06/21 11:15:46;;;;;;;7.78;5.55;;;;;;;29.28;51.03;100477.91;4931634;28;20062;-72
2023/06/21 11:18:20;;;;;;;6.13;5.07;;;;;;;29.49;51.85;100471.69;4937658;28;20051;-72
2023/06/21 11:20:50;;;;;;;6.57;5.00;;;;;;;29.51;51.15;100489.56;4939968;29;20065;-70